Time;durP1;ratioP1;P1;durP2;ratioP2;P2;SDS_P1;SDS_P2;PMS_P1;PMS_P2;Temp;Humidity;BMP_temperature;BMP_pressure;BME280_temperature;BME280_humidity;BME280_pressure;Samples;Min_cycle;Max_cycle;Signal;HPM_P1;HPM_P2
2023/06/27 00:01:05;;;;;;;19.48;9.77;;;;;;;15.83;76.81;101874.38;4994713;28;20101;-74
2023/06/27 00:03:33;;;;;;;18.08;9.32;;;;;;;15.81;76.94;101879.47;4994842;28;20418;-74
2023/06/27 00:06:00;;;;;;;19.55;10.00;;;;;;;15.80;77.04;101884.22;4994855;28;20045;-73
2023/06/27 00:08:27;;;;;;;19.40;10.15;;;;;;;15.76;77.62;101883.19;4994768;28;20026;-74
2023/06/27 00:10:53;;;;;;;20.70;9.85;;;;;;;15.75;77.84;101878.75;4993439;28;20046;-77
2023/06/27 00:13:20;;;;;;;18.70;9.68;;;;;;;15.73;77.74;101881.88;4995017;28;20589;-77
2023/06/27 00:15:46;;;;;;;18.25;9.50;;;;;;;15.74;77.92;101874.31;5014956;28;20080;-76
2023/06/27 00:18:11;;;;;;;18.60;9.80;;;;;;;15.77;77.96;101878.47;5013483;28;20033;-75
2023/06/27 00:20:37;;;;;;;17.15;9.48;;;;;;;15.77;77.88;101884.84;5014363;28;20121;-75
2023/06/27 00:23:20;;;;;;;19.08;9.55;;;;;;;15.70;77.41;101868.53;5012765;28;20026;-75
2023/06/27 00:25:46;;;;;;;19.67;9.77;;;;;;;15.75;78.24;101881.53;5014191;28;20053;-76
2023/06/27 00:28:12;;;;;;;18.98;9.85;;;;;;;15.74;78.76;101877.94;5013779;28;20547;-76
2023/06/27 00:30:38;;;;;;;18.63;9.90;;;;;;;15.71;78.81;101880.53;4994516;28;20046;-75
2023/06/27 00:33:03;;;;;;;18.45;10.35;;;;;;;15.70;78.99;101878.88;4994112;28;20026;-75
2023/06/27 00:35:32;;;;;;;18.85;10.73;;;;;;;15.67;79.24;101871.97;4992912;28;20034;-76
2023/06/27 00:38:07;;;;;;;19.30;10.32;;;;;;;15.67;79.61;101869.19;4994265;28;20474;-75
2023/06/27 00:40:32;;;;;;;18.92;10.50;;;;;;;15.68;79.79;101876.41;4993813;28;20546;-75
2023/06/27 00:42:58;;;;;;;16.58;9.98;;;;;;;15.67;79.95;101874.78;4994232;28;20022;-76
2023/06/27 00:45:23;;;;;;;18.38;10.43;;;;;;;15.68;80.73;101864.44;4993854;28;20023;-76
2023/06/27 00:47:56;;;;;;;20.35;9.90;;;;;;;15.62;80.43;101871.28;4994297;28;20030;-78
2023/06/27 00:50:22;;;;;;;19.90;10.57;;;;;;;15.64;80.52;101871.75;4994085;28;20136;-79
2023/06/27 00:52:48;;;;;;;19.85;10.80;;;;;;;15.59;80.71;101878.28;4993382;28;20019;-77
2023/06/27 00:55:14;;;;;;;18.83;10.68;;;;;;;15.53;81.11;101877.63;4993785;28;20049;-78
2023/06/27 00:57:40;;;;;;;20.95;10.80;;;;;;;15.54;81.57;101870.88;4993702;28;20334;-78
2023/06/27 01:00:09;;;;;;;17.98;9.95;;;;;;;15.53;81.42;101873.97;4993731;28;20026;-78
2023/06/27 01:02:35;;;;;;;20.23;10.52;;;;;;;15.52;81.43;101873.19;4993884;28;20069;-76
2023/06/27 01:05:01;;;;;;;19.50;11.02;;;;;;;15.53;81.90;101874.81;4993550;28;20030;-77
2023/06/27 01:07:35;;;;;;;19.90;11.38;;;;;;;15.53;81.81;101879.56;4992054;28;20061;-77
2023/06/27 01:10:05;;;;;;;21.17;10.95;;;;;;;15.56;81.98;101885.31;4993524;28;20076;-77
2023/06/27 01:12:48;;;;;;;20.42;10.68;;;;;;;15.58;81.37;101883.06;4993299;28;20026;-75
2023/06/27 01:15:14;;;;;;;18.92;10.65;;;;;;;15.59;81.30;101881.06;4993382;28;20034;-74
2023/06/27 01:17:40;;;;;;;21.33;10.57;;;;;;;15.58;81.63;101879.47;4993154;28;20026;-75
2023/06/27 01:20:07;;;;;;;22.05;11.25;;;;;;;15.56;81.60;101876.16;4993406;28;20030;-77
2023/06/27 01:22:39;;;;;;;20.17;10.77;;;;;;;15.58;81.74;101873.88;4993254;28;20447;-77
2023/06/27 01:25:07;;;;;;;20.50;11.00;;;;;;;15.64;81.82;101877.34;4993349;28;20022;-78
2023/06/27 01:27:33;;;;;;;19.25;10.95;;;;;;;15.61;82.11;101876.00;4993468;28;20509;-76
2023/06/27 01:29:58;;;;;;;22.60;11.25;;;;;;;15.58;82.14;101871.91;5007510;28;20046;-75
2023/06/27 01:32:36;;;;;;;20.92;10.80;;;;;;;15.58;82.24;101879.47;5012595;28;20061;-74
2023/06/27 01:35:11;;;;;;;23.75;11.23;;;;;;;15.56;82.38;101882.53;5012486;28;20091;-73
2023/06/27 01:37:41;;;;;;;20.67;11.07;;;;;;;15.49;82.49;101875.78;5012740;28;20026;-75
2023/06/27 01:40:13;;;;;;;19.50;11.00;;;;;;;15.50;83.07;101871.81;5012835;28;20454;-74
2023/06/27 01:42:41;;;;;;;20.98;10.68;;;;;;;15.48;82.98;101883.28;5012617;28;20045;-72
2023/06/27 01:45:07;;;;;;;21.38;11.38;;;;;;;15.45;82.95;101878.34;4997088;28;20027;-73
2023/06/27 01:47:36;;;;;;;21.27;11.02;;;;;;;15.42;82.62;101870.63;4992871;28;20034;-75
2023/06/27 01:50:02;;;;;;;19.58;10.80;;;;;;;15.41;83.45;101874.53;4992932;28;20038;-75
2023/06/27 01:52:28;;;;;;;19.75;10.60;;;;;;;15.41;83.73;101875.34;4992835;28;20045;-73
2023/06/27 01:54:53;;;;;;;20.17;11.52;;;;;;;15.40;83.66;101868.13;4992914;28;20022;-75
2023/06/27 01:57:19;;;;;;;22.05;11.60;;;;;;;15.39;83.78;101865.66;4992553;28;20023;-75
2023/06/27 01:59:44;;;;;;;21.13;11.68;;;;;;;15.39;83.75;101865.66;4992679;28;20035;-74
2023/06/27 02:02:09;;;;;;;20.52;11.30;;;;;;;15.37;83.99;101870.72;4992737;28;20037;-74
2023/06/27 02:04:35;;;;;;;20.17;11.82;;;;;;;15.33;83.98;101873.31;5002596;28;20113;-74
2023/06/27 02:07:00;;;;;;;20.60;11.77;;;;;;;15.31;84.39;101863.63;5012325;28;20560;-75
2023/06/27 02:09:25;;;;;;;21.67;11.68;;;;;;;15.29;84.66;101864.75;5012135;28;20091;-76
2023/06/27 02:11:51;;;;;;;20.10;11.80;;;;;;;15.28;84.80;101865.09;5012181;28;20053;-75
2023/06/27 02:14:16;;;;;;;21.27;12.00;;;;;;;15.26;84.91;101861.78;5012257;28;20144;-75
2023/06/27 02:16:41;;;;;;;22.42;11.43;;;;;;;15.25;85.12;101860.13;5012252;28;20133;-74
2023/06/27 02:19:07;;;;;;;20.63;11.80;;;;;;;15.25;85.40;101857.34;5012047;28;20034;-74
2023/06/27 02:21:32;;;;;;;24.45;12.73;;;;;;;15.28;85.12;101860.31;5012147;28;20057;-74
2023/06/27 02:23:57;;;;;;;20.95;11.57;;;;;;;15.26;85.42;101857.00;5010925;28;20109;-74
2023/06/27 02:26:23;;;;;;;22.17;11.98;;;;;;;15.22;85.54;101856.00;5010703;28;20034;-74
2023/06/27 02:28:48;;;;;;;21.90;11.93;;;;;;;15.22;85.55;101855.16;5011977;28;20042;-74
2023/06/27 02:31:14;;;;;;;19.77;11.35;;;;;;;15.18;85.42;101852.19;5012017;28;20026;-72
2023/06/27 02:33:39;;;;;;;22.88;11.57;;;;;;;15.20;85.48;101863.03;5011879;28;20033;-72
2023/06/27 02:36:06;;;;;;;20.65;11.35;;;;;;;15.15;85.96;101857.56;5011815;28;20461;-73
2023/06/27 02:38:31;;;;;;;19.90;11.95;;;;;;;15.11;86.46;101852.59;5011732;28;20022;-73
2023/06/27 02:40:56;;;;;;;22.17;11.70;;;;;;;15.10;86.30;101850.97;5011902;28;20489;-75
2023/06/27 02:43:22;;;;;;;22.52;12.23;;;;;;;15.09;86.80;101856.84;5011697;28;20030;-73
2023/06/27 02:45:47;;;;;;;22.58;11.70;;;;;;;15.07;86.83;101847.97;5012308;28;20121;-74
2023/06/27 02:48:12;;;;;;;22.25;12.18;;;;;;;15.03;87.30;101850.56;5015601;28;20034;-76
2023/06/27 02:50:38;;;;;;;21.13;12.00;;;;;;;15.00;87.88;101859.56;5015575;28;20037;-75
2023/06/27 02:53:03;;;;;;;21.42;12.02;;;;;;;14.99;87.99;101846.75;5014204;28;20136;-75
2023/06/27 02:55:28;;;;;;;19.50;11.30;;;;;;;14.96;88.13;101844.59;5015535;28;20030;-75
2023/06/27 02:57:54;;;;;;;21.13;11.77;;;;;;;14.95;88.09;101854.09;5015395;28;20422;-75
2023/06/27 03:00:19;;;;;;;22.90;11.38;;;;;;;14.93;88.53;101856.34;5015426;28;20057;-75
2023/06/27 03:02:44;;;;;;;21.80;11.93;;;;;;;14.92;88.51;101849.97;5015413;28;20041;-75
2023/06/27 03:05:10;;;;;;;21.80;11.85;;;;;;;14.89;88.76;101855.34;5015383;28;20488;-76
2023/06/27 03:07:35;;;;;;;20.35;12.23;;;;;;;14.92;88.66;101863.09;5015304;28;20411;-73
2023/06/27 03:10:00;;;;;;;21.33;12.38;;;;;;;14.90;89.22;101859.78;5015288;28;20409;-75
2023/06/27 03:12:26;;;;;;;21.23;11.48;;;;;;;14.89;89.16;101861.72;5015404;28;20050;-74
2023/06/27 03:14:51;;;;;;;23.15;12.10;;;;;;;14.86;89.78;101867.09;5015205;28;20026;-75
2023/06/27 03:17:16;;;;;;;21.70;12.10;;;;;;;14.83;90.13;101865.75;5015123;28;20026;-76
2023/06/27 03:19:42;;;;;;;20.98;11.88;;;;;;;14.81;89.73;101874.44;5015205;28;20021;-76
2023/06/27 03:22:07;;;;;;;22.83;12.18;;;;;;;14.80;90.23;101866.38;5013636;28;20523;-74
2023/06/27 03:24:32;;;;;;;22.00;12.50;;;;;;;14.78;90.40;101863.91;5014871;28;20053;-78
2023/06/27 03:26:58;;;;;;;22.75;12.02;;;;;;;14.78;90.43;101865.88;5013755;28;20040;-77
2023/06/27 03:29:23;;;;;;;22.80;12.60;;;;;;;14.79;90.61;101868.34;5014947;28;20414;-79
2023/06/27 03:31:48;;;;;;;20.38;12.13;;;;;;;14.83;90.72;101862.97;5014966;28;20017;-77
2023/06/27 03:34:14;;;;;;;21.65;11.65;;;;;;;14.85;90.52;101862.66;5014787;28;20037;-77
2023/06/27 03:36:39;;;;;;;21.15;10.98;;;;;;;14.85;90.48;101860.72;5013503;28;20026;-77
2023/06/27 03:39:05;;;;;;;21.35;11.10;;;;;;;14.88;90.34;101856.47;5014879;28;20053;-76
2023/06/27 03:41:30;;;;;;;19.88;11.30;;;;;;;14.89;90.46;101864.50;5014573;28;20446;-74
2023/06/27 03:43:55;;;;;;;22.83;11.00;;;;;;;14.92;90.33;101863.91;5014709;28;20026;-76
2023/06/27 03:46:21;;;;;;;23.33;12.00;;;;;;;14.94;90.05;101864.41;5014680;28;20042;-76
2023/06/27 03:48:47;;;;;;;19.60;10.98;;;;;;;14.97;89.98;101860.16;5014622;28;20034;-76
2023/06/27 03:51:12;;;;;;;19.77;11.13;;;;;;;14.95;90.09;101862.44;5013242;28;20040;-73
2023/06/27 03:53:38;;;;;;;20.70;11.05;;;;;;;14.94;90.17;101866.34;5014541;28;20044;-76
2023/06/27 03:56:04;;;;;;;21.33;11.23;;;;;;;14.88;90.60;101862.84;5014453;28;20484;-74
2023/06/27 03:58:29;;;;;;;24.75;11.52;;;;;;;14.90;90.41;101874.50;5014062;28;20026;-74
2023/06/27 04:00:55;;;;;;;24.45;10.60;;;;;;;14.90;90.68;101866.16;5014338;28;20030;-74
2023/06/27 04:03:20;;;;;;;23.13;11.10;;;;;;;14.87;91.04;101866.81;5014270;28;20434;-75
2023/06/27 04:05:46;;;;;;;23.02;10.70;;;;;;;14.86;90.68;101867.94;5014242;28;20026;-75
2023/06/27 04:08:11;;;;;;;21.17;10.63;;;;;;;14.86;91.18;101864.31;5014160;28;20041;-73
2023/06/27 04:10:37;;;;;;;22.15;11.02;;;;;;;14.86;91.40;101872.66;5014045;28;20054;-74
2023/06/27 04:13:03;;;;;;;19.65;10.85;;;;;;;14.84;91.20;101875.78;5014136;28;20038;-73
2023/06/27 04:15:28;;;;;;;21.77;11.48;;;;;;;14.85;91.71;101873.78;5014078;28;20393;-74
2023/06/27 04:17:54;;;;;;;21.23;11.50;;;;;;;14.81;92.20;101868.88;5003151;28;20386;-75
2023/06/27 04:20:19;;;;;;;22.33;11.32;;;;;;;14.83;92.00;101865.75;4994438;28;20030;-74
2023/06/27 04:22:44;;;;;;;22.27;11.40;;;;;;;14.79;92.16;101862.78;4994420;28;20053;-76
2023/06/27 04:25:11;;;;;;;20.85;11.20;;;;;;;14.81;92.58;101865.22;4994654;28;20034;-75
2023/06/27 04:27:39;;;;;;;21.38;11.40;;;;;;;14.80;93.07;101869.16;4994467;28;20030;-73
2023/06/27 04:30:05;;;;;;;21.52;11.70;;;;;;;14.81;92.87;101873.59;4994280;28;20050;-76
2023/06/27 04:32:33;;;;;;;22.40;11.00;;;;;;;14.82;93.20;101866.88;4994181;28;20089;-76
2023/06/27 04:34:59;;;;;;;22.60;12.10;;;;;;;14.81;93.55;101868.88;4994472;28;20109;-76
2023/06/27 04:37:25;;;;;;;23.73;11.77;;;;;;;14.79;93.36;101873.91;4994155;28;20113;-76
2023/06/27 04:39:52;;;;;;;21.40;11.32;;;;;;;14.81;93.57;101871.66;4994186;28;20034;-75
2023/06/27 04:42:18;;;;;;;22.35;12.00;;;;;;;14.77;93.98;101878.97;4994220;28;20033;-75
2023/06/27 04:44:44;;;;;;;24.02;12.30;;;;;;;14.73;94.26;101868.75;4994112;28;20026;-75
2023/06/27 04:47:09;;;;;;;21.77;11.77;;;;;;;14.73;94.89;101877.94;4993806;28;20474;-76
2023/06/27 04:49:34;;;;;;;21.33;11.88;;;;;;;14.72;95.11;101875.44;4993856;28;20026;-76
2023/06/27 04:52:00;;;;;;;24.42;12.07;;;;;;;14.66;95.16;101874.69;4993659;28;20018;-76
2023/06/27 04:54:25;;;;;;;22.50;11.80;;;;;;;14.71;95.10;101880.22;4993702;28;20116;-71
2023/06/27 04:56:50;;;;;;;25.23;12.07;;;;;;;14.82;94.83;101880.81;4993734;28;20034;-70
2023/06/27 04:59:17;;;;;;;20.92;11.98;;;;;;;14.89;94.20;101888.78;4993410;28;20118;-70
2023/06/27 05:01:42;;;;;;;23.17;12.10;;;;;;;14.92;94.23;101891.75;4992126;28;20406;-71
2023/06/27 05:04:07;;;;;;;27.48;12.20;;;;;;;14.92;94.44;101883.41;4992325;28;20027;-72
2023/06/27 05:06:33;;;;;;;21.75;12.02;;;;;;;14.98;94.26;101884.13;4992041;28;20390;-70
2023/06/27 05:08:59;;;;;;;20.88;12.20;;;;;;;15.02;93.33;101881.53;4991365;28;20030;-68
2023/06/27 05:11:24;;;;;;;23.65;11.82;;;;;;;15.06;93.14;101888.16;4993501;28;20034;-68
2023/06/27 05:13:50;;;;;;;22.73;12.00;;;;;;;15.11;93.73;101894.41;4993321;28;20035;-69
2023/06/27 05:16:15;;;;;;;21.13;12.30;;;;;;;15.17;93.84;101892.34;4993338;28;20162;-69
2023/06/27 05:18:41;;;;;;;23.88;12.30;;;;;;;15.19;93.73;101887.28;4993086;28;20026;-69
2023/06/27 05:21:07;;;;;;;20.65;11.93;;;;;;;15.28;93.37;101884.59;4993044;28;20026;-69
2023/06/27 05:23:32;;;;;;;22.38;12.07;;;;;;;15.37;92.87;101891.06;4993030;28;20050;-69
2023/06/27 05:25:58;;;;;;;23.42;12.80;;;;;;;15.36;93.12;101886.63;4993007;28;20483;-70
2023/06/27 05:28:23;;;;;;;24.52;12.18;;;;;;;15.50;92.21;101883.81;4992800;28;20030;-70
2023/06/27 05:30:49;;;;;;;25.55;12.77;;;;;;;15.46;92.79;101879.19;4993029;28;20065;-71
2023/06/27 05:33:14;;;;;;;22.55;12.10;;;;;;;15.54;92.68;101887.59;4992695;28;20030;-70
2023/06/27 05:35:40;;;;;;;22.58;12.57;;;;;;;15.60;92.74;101888.31;4991359;28;20432;-69
2023/06/27 05:38:06;;;;;;;24.42;12.55;;;;;;;15.65;92.69;101884.56;4991180;28;20459;-68
2023/06/27 05:40:31;;;;;;;25.73;12.70;;;;;;;15.71;92.77;101884.16;4992799;28;20117;-69
2023/06/27 05:42:57;;;;;;;22.15;12.73;;;;;;;15.81;92.36;101883.09;4992641;28;20034;-69
2023/06/27 05:45:22;;;;;;;24.45;12.70;;;;;;;15.88;92.00;101877.91;4991063;28;20478;-70
2023/06/27 05:47:47;;;;;;;23.27;12.38;;;;;;;16.01;91.20;101881.78;4985629;28;20106;-70
2023/06/27 05:50:13;;;;;;;23.73;12.90;;;;;;;16.14;91.56;101887.59;4984301;28;20052;-69
2023/06/27 05:52:38;;;;;;;24.05;12.82;;;;;;;16.20;91.29;101886.31;4973190;28;20019;-70
2023/06/27 05:55:04;;;;;;;23.67;12.45;;;;;;;16.36;90.52;101881.16;4973617;28;20035;-70
2023/06/27 05:57:29;;;;;;;22.65;12.73;;;;;;;16.37;91.25;101889.19;5011752;28;20040;-71
2023/06/27 05:59:55;;;;;;;25.50;12.85;;;;;;;16.45;90.37;101893.19;5012172;28;20025;-71
2023/06/27 06:02:20;;;;;;;23.48;13.27;;;;;;;16.53;91.31;101888.81;5012340;28;20041;-71
2023/06/27 06:04:45;;;;;;;24.73;13.48;;;;;;;16.57;90.43;101888.97;4999397;28;20570;-71
2023/06/27 06:07:11;;;;;;;22.42;12.95;;;;;;;16.66;90.13;101881.47;4992686;28;20026;-70
2023/06/27 06:09:36;;;;;;;23.00;12.73;;;;;;;16.76;89.62;101883.13;4992591;28;20105;-69
2023/06/27 06:12:02;;;;;;;23.13;12.93;;;;;;;16.82;89.88;101881.81;4992562;28;20041;-69
2023/06/27 06:14:27;;;;;;;23.42;12.77;;;;;;;16.92;88.80;101878.72;4992422;28;20498;-70
2023/06/27 06:16:53;;;;;;;26.08;13.32;;;;;;;17.04;89.22;101886.53;4992303;28;20034;-71
2023/06/27 06:19:19;;;;;;;24.38;12.55;;;;;;;17.15;87.76;101885.06;4991995;28;20034;-69
2023/06/27 06:21:44;;;;;;;24.00;13.50;;;;;;;17.21;87.64;101885.72;4994366;28;20027;-68
2023/06/27 06:24:09;;;;;;;21.88;12.65;;;;;;;17.33;86.83;101887.06;4994995;28;20054;-70
2023/06/27 06:26:35;;;;;;;23.23;12.93;;;;;;;17.43;86.98;101881.16;4994915;28;20037;-68
2023/06/27 06:29:03;;;;;;;25.77;13.27;;;;;;;17.49;85.54;101877.03;4996122;28;20134;-69
2023/06/27 06:31:29;;;;;;;23.67;13.38;;;;;;;17.56;85.99;101883.00;4996329;28;20041;-69
2023/06/27 06:33:56;;;;;;;25.55;13.25;;;;;;;17.64;85.19;101888.91;5011325;28;20026;-71
2023/06/27 06:36:21;;;;;;;23.15;12.80;;;;;;;17.73;85.50;101884.94;5015975;28;20111;-70
2023/06/27 06:38:46;;;;;;;22.60;12.80;;;;;;;17.83;85.26;101882.97;5014373;28;20061;-69
2023/06/27 06:41:13;;;;;;;21.35;12.32;;;;;;;17.99;84.59;101902.91;5015806;28;20034;-69
2023/06/27 06:43:38;;;;;;;22.17;12.57;;;;;;;18.10;84.13;101895.81;5015770;28;20034;-73
2023/06/27 06:46:03;;;;;;;22.80;13.23;;;;;;;18.21;82.72;101901.88;5015762;28;20473;-71
2023/06/27 06:48:29;;;;;;;22.73;12.70;;;;;;;18.38;81.30;101901.00;5015908;28;20533;-72
2023/06/27 06:50:54;;;;;;;24.67;12.60;;;;;;;18.40;79.83;101901.50;5015617;28;20022;-71
2023/06/27 06:53:19;;;;;;;25.65;13.23;;;;;;;18.49;79.61;101902.31;5015518;28;20033;-70
2023/06/27 06:55:45;;;;;;;21.92;12.75;;;;;;;18.52;78.10;101904.41;5016643;28;20497;-74
2023/06/27 06:58:11;;;;;;;21.10;11.73;;;;;;;18.54;75.97;101904.09;5015688;28;20433;-74
2023/06/27 07:00:36;;;;;;;21.33;11.73;;;;;;;18.62;74.63;101902.41;5015559;28;20072;-71
2023/06/27 07:03:08;;;;;;;22.02;11.65;;;;;;;18.68;74.00;101899.09;5015270;28;20029;-68
2023/06/27 07:05:34;;;;;;;21.50;11.35;;;;;;;18.69;74.02;101908.34;4993685;28;20030;-67
2023/06/27 07:08:00;;;;;;;20.13;11.23;;;;;;;18.70;72.58;101896.78;4993991;28;20497;-70
2023/06/27 07:10:25;;;;;;;21.15;11.43;;;;;;;18.80;72.16;101905.97;4994151;28;20030;-70
2023/06/27 07:12:50;;;;;;;21.23;11.27;;;;;;;18.93;72.58;101906.91;4995030;28;20184;-72
2023/06/27 07:15:17;;;;;;;21.10;10.82;;;;;;;19.14;70.74;101895.75;4994664;28;20022;-68
2023/06/27 07:17:43;;;;;;;19.70;11.02;;;;;;;19.35;70.55;101907.00;4994591;28;20046;-68
2023/06/27 07:20:09;;;;;;;19.23;10.60;;;;;;;19.51;67.03;101918.41;4993763;28;20121;-68
2023/06/27 07:22:34;;;;;;;18.15;9.95;;;;;;;19.68;66.23;101917.47;4994224;28;20035;-67
2023/06/27 07:25:00;;;;;;;17.92;9.43;;;;;;;19.74;65.15;101910.47;4994174;28;20034;-68
2023/06/27 07:27:25;;;;;;;21.02;9.65;;;;;;;19.85;64.25;101916.53;4994172;28;20034;-68
2023/06/27 07:29:50;;;;;;;19.70;9.82;;;;;;;19.83;64.22;101906.81;4994311;28;20160;-68
2023/06/27 07:32:16;;;;;;;22.00;10.30;;;;;;;19.75;65.31;101912.13;4993473;28;20363;-69
2023/06/27 07:34:41;;;;;;;19.75;9.80;;;;;;;19.69;65.05;101895.84;4993898;28;20026;-69
2023/06/27 07:37:06;;;;;;;17.55;9.30;;;;;;;19.80;64.43;101894.25;5008976;28;20034;-69
2023/06/27 07:39:32;;;;;;;18.10;9.35;;;;;;;19.96;63.26;101891.66;4994281;28;20521;-68
2023/06/27 07:41:57;;;;;;;18.63;9.50;;;;;;;20.17;63.68;101899.22;4994726;28;20027;-66
2023/06/27 07:44:23;;;;;;;15.52;9.05;;;;;;;20.16;61.56;101906.00;4994539;28;20042;-69
2023/06/27 07:46:48;;;;;;;18.05;9.75;;;;;;;20.16;62.23;101909.66;4994960;28;20042;-68
2023/06/27 07:49:15;;;;;;;16.70;9.05;;;;;;;20.20;62.31;101898.53;4995165;28;20030;-67
2023/06/27 07:51:41;;;;;;;18.10;9.23;;;;;;;20.39;62.31;101900.78;5012171;28;20030;-68
2023/06/27 07:54:06;;;;;;;18.13;9.00;;;;;;;20.52;61.43;101905.28;4996197;28;20048;-69
2023/06/27 07:56:31;;;;;;;16.55;8.60;;;;;;;20.54;59.08;101897.31;4994564;28;20022;-71
2023/06/27 07:58:58;;;;;;;13.68;8.30;;;;;;;20.43;59.90;101896.13;4993688;28;20037;-68
2023/06/27 08:01:23;;;;;;;16.33;8.73;;;;;;;20.43;59.64;101898.94;4993806;28;20069;-70
2023/06/27 08:03:48;;;;;;;16.67;8.30;;;;;;;20.50;57.96;101906.81;4993793;28;20065;-70
2023/06/27 08:06:14;;;;;;;16.77;8.40;;;;;;;20.71;57.28;101909.50;4993828;28;20109;-71
2023/06/27 08:08:40;;;;;;;17.48;8.90;;;;;;;20.95;56.06;101893.84;5003981;28;20029;-69
2023/06/27 08:11:05;;;;;;;15.15;8.73;;;;;;;21.28;54.82;101890.06;5013305;28;20565;-69
2023/06/27 08:13:31;;;;;;;17.58;8.80;;;;;;;21.23;54.40;101898.72;5013035;28;20517;-70
2023/06/27 08:15:56;;;;;;;15.93;8.60;;;;;;;21.19;55.29;101893.00;5012985;28;20034;-68
2023/06/27 08:18:21;;;;;;;14.88;8.40;;;;;;;21.29;55.25;101892.50;5012540;28;20022;-67
2023/06/27 08:20:47;;;;;;;18.13;8.73;;;;;;;21.51;55.94;101891.16;5011559;28;20026;-66
2023/06/27 08:23:12;;;;;;;17.90;9.18;;;;;;;21.58;54.84;101898.19;5013500;28;20536;-68
2023/06/27 08:25:38;;;;;;;17.30;8.57;;;;;;;21.60;54.32;101890.22;5013701;28;20036;-69
2023/06/27 08:28:03;;;;;;;16.08;8.48;;;;;;;21.61;55.93;101884.25;5008020;28;20022;-68
2023/06/27 08:30:29;;;;;;;14.63;8.65;;;;;;;21.62;53.73;101896.31;4994148;28;20054;-69
2023/06/27 08:32:56;;;;;;;18.65;8.30;;;;;;;21.75;53.16;101895.13;4991564;28;20098;-71
2023/06/27 08:35:21;;;;;;;17.55;9.07;;;;;;;21.73;53.58;101886.19;4994548;28;20102;-69
2023/06/27 08:37:47;;;;;;;15.88;8.10;;;;;;;21.50;52.85;101892.31;4994281;28;20026;-72
2023/06/27 08:40:34;;;;;;;17.50;8.60;;;;;;;21.10;53.64;101886.66;4994299;28;20121;-68
2023/06/27 08:43:00;;;;;;;15.98;8.25;;;;;;;21.01;55.00;101893.25;4983564;28;20105;-70
2023/06/27 08:45:25;;;;;;;16.90;8.60;;;;;;;21.03;55.10;101884.44;4973246;28;20114;-71
2023/06/27 08:47:58;;;;;;;16.75;8.50;;;;;;;21.12;55.47;101887.16;4974720;28;20089;-70
2023/06/27 08:50:27;;;;;;;17.63;9.38;;;;;;;21.15;55.48;101878.81;4974887;28;20094;-70
2023/06/27 08:52:58;;;;;;;17.48;9.00;;;;;;;21.24;55.16;101884.31;4976315;28;20039;-71
2023/06/27 08:55:39;;;;;;;15.00;8.70;;;;;;;21.33;55.39;101885.00;4977914;28;20062;-70
2023/06/27 08:58:08;;;;;;;17.05;8.82;;;;;;;21.25;55.83;101890.75;4976160;28;20066;-70
2023/06/27 09:00:34;;;;;;;16.33;9.00;;;;;;;21.25;56.16;101888.78;4975842;28;20027;-69
2023/06/27 09:03:01;;;;;;;20.27;9.00;;;;;;;21.24;56.75;101877.84;4976292;28;20023;-70
2023/06/27 09:05:27;;;;;;;17.70;9.48;;;;;;;21.28;56.20;101885.22;4974758;28;20542;-69
2023/06/27 09:07:52;;;;;;;18.02;9.20;;;;;;;21.32;55.92;101876.91;4975341;28;20035;-69
2023/06/27 09:10:19;;;;;;;16.15;8.80;;;;;;;21.21;56.24;101878.59;4979226;28;20037;-70
2023/06/27 09:12:45;;;;;;;16.98;8.60;;;;;;;21.27;54.87;101883.59;4978548;28;20035;-70
2023/06/27 09:15:11;;;;;;;16.00;8.18;;;;;;;21.35;53.40;101887.44;4978006;28;20034;-71
2023/06/27 09:17:38;;;;;;;15.43;7.95;;;;;;;21.40;52.47;101878.75;4978170;28;20038;-69
2023/06/27 09:20:05;;;;;;;14.40;8.10;;;;;;;21.37;52.01;101887.09;4977326;28;20035;-69
2023/06/27 09:22:31;;;;;;;17.15;8.07;;;;;;;21.53;51.58;101888.00;4975682;28;20180;-70
2023/06/27 09:25:16;;;;;;;16.02;7.97;;;;;;;21.79;52.55;101881.94;4974074;28;20511;-70
2023/06/27 09:27:42;;;;;;;17.23;8.18;;;;;;;22.03;50.70;101885.00;4974568;28;20034;-70
2023/06/27 09:30:09;;;;;;;14.93;8.05;;;;;;;21.92;50.80;101885.50;4975936;28;20062;-73
2023/06/27 09:32:52;;;;;;;16.83;8.70;;;;;;;22.06;51.67;101876.63;4975270;28;20023;-70
2023/06/27 09:35:18;;;;;;;16.40;8.40;;;;;;;22.26;51.34;101886.06;4976275;28;20023;-73
2023/06/27 09:37:44;;;;;;;17.13;8.77;;;;;;;22.50;50.25;101880.63;4974373;28;20035;-70
2023/06/27 09:40:24;;;;;;;15.85;8.80;;;;;;;22.47;50.35;101870.09;4974127;28;20041;-71
2023/06/27 09:42:51;;;;;;;16.75;8.70;;;;;;;22.09;50.03;101886.41;4975289;28;20042;-72
2023/06/27 09:45:17;;;;;;;18.38;8.02;;;;;;;21.91;49.02;101900.81;4975032;28;20022;-73
2023/06/27 09:47:42;;;;;;;13.50;7.93;;;;;;;22.08;46.66;101910.09;4974814;28;20158;-73
2023/06/27 09:50:08;;;;;;;11.18;7.55;;;;;;;22.26;45.09;101896.50;4974494;28;20332;-71
2023/06/27 09:52:33;;;;;;;13.35;7.40;;;;;;;22.34;43.34;101900.31;4974339;28;20463;-71
2023/06/27 09:54:59;;;;;;;15.27;7.18;;;;;;;22.44;43.29;101897.81;4973973;28;20027;-71
2023/06/27 09:57:25;;;;;;;14.30;7.25;;;;;;;22.47;42.81;101901.94;4973933;28;20037;-71
2023/06/27 09:59:57;;;;;;;11.82;7.45;;;;;;;22.27;43.34;101904.59;4974325;28;20064;-71
2023/06/27 10:02:28;;;;;;;12.43;7.20;;;;;;;22.16;44.21;101899.84;4973682;28;20058;-69
2023/06/27 10:04:53;;;;;;;15.68;8.13;;;;;;;21.99;44.69;101903.81;4974331;28;20031;-72
2023/06/27 10:07:20;;;;;;;11.88;7.68;;;;;;;21.72;45.66;101897.84;4984260;28;20041;-70
2023/06/27 10:09:46;;;;;;;12.15;7.38;;;;;;;21.70;46.43;101895.34;4993058;28;20038;-71
2023/06/27 10:12:14;;;;;;;14.55;7.15;;;;;;;21.78;45.94;101900.00;4992813;28;20026;-72
2023/06/27 10:14:39;;;;;;;11.38;7.40;;;;;;;22.16;45.24;101889.41;4992941;28;20030;-70
2023/06/27 10:17:05;;;;;;;13.77;7.22;;;;;;;22.54;44.83;101895.63;4992705;28;20140;-70
2023/06/27 10:19:32;;;;;;;15.05;7.20;;;;;;;22.62;43.90;101907.91;4992719;28;20022;-71
2023/06/27 10:22:00;;;;;;;12.27;6.90;;;;;;;22.51;43.94;101896.38;4992789;28;20037;-72
2023/06/27 10:24:28;;;;;;;12.27;6.90;;;;;;;22.83;43.77;101908.47;4992701;28;20027;-71
2023/06/27 10:26:56;;;;;;;12.75;7.13;;;;;;;22.80;44.31;101900.72;4992498;28;20034;-72
2023/06/27 10:29:23;;;;;;;14.02;6.90;;;;;;;22.71;43.76;101911.38;4992516;28;20132;-72
2023/06/27 10:31:49;;;;;;;13.43;7.30;;;;;;;22.63;44.42;101901.91;4992629;28;20023;-70
2023/06/27 10:34:24;;;;;;;13.30;6.90;;;;;;;22.56;44.22;101901.72;4992761;28;20165;-71
2023/06/27 10:36:59;;;;;;;13.15;7.00;;;;;;;23.02;44.10;101893.59;4992707;28;20026;-70
2023/06/27 10:39:32;;;;;;;12.45;7.38;;;;;;;23.31;42.67;101916.06;4992711;28;20031;-71
2023/06/27 10:42:01;;;;;;;13.27;7.40;;;;;;;23.36;42.33;101894.00;4992614;28;20030;-71
2023/06/27 10:44:27;;;;;;;10.25;6.90;;;;;;;23.34;40.79;101887.91;4992325;28;20046;-72
2023/06/27 10:47:14;;;;;;;12.75;7.20;;;;;;;23.47;41.69;101891.41;4992808;28;20371;-70
2023/06/27 10:49:40;;;;;;;11.95;6.95;;;;;;;22.96;41.69;101886.59;4991245;28;20309;-71
2023/06/27 10:52:05;;;;;;;10.85;7.18;;;;;;;23.09;40.75;101892.94;4992475;28;20027;-70
2023/06/27 10:54:31;;;;;;;12.93;6.90;;;;;;;23.31;40.57;101877.34;4990981;28;20072;-70
2023/06/27 10:56:59;;;;;;;13.35;7.40;;;;;;;23.63;40.14;101884.88;4992034;28;20031;-71
2023/06/27 10:59:24;;;;;;;12.65;7.00;;;;;;;23.78;39.69;101878.34;5007333;28;20026;-71
2023/06/27 11:02:02;;;;;;;10.88;7.30;;;;;;;24.02;40.34;101876.41;4992263;28;20036;-70
2023/06/27 11:04:42;;;;;;;13.48;6.85;;;;;;;23.95;39.58;101876.28;4992376;28;20038;-70
2023/06/27 11:07:10;;;;;;;12.57;7.20;;;;;;;24.16;40.44;101883.53;4993208;28;20126;-70
2023/06/27 11:09:36;;;;;;;12.55;6.95;;;;;;;24.26;41.12;101872.41;4995862;28;20085;-70